createdAt,value
2022-12-05T00:01:31.871Z,0.60
2022-12-05T00:04:02.187Z,0.60
2022-12-05T00:06:30.916Z,0.70
2022-12-05T00:08:58.356Z,0.70
2022-12-05T00:11:32.108Z,0.70
2022-12-05T00:14:00.850Z,0.70
2022-12-05T00:16:30.029Z,0.70
2022-12-05T00:19:00.073Z,0.60
2022-12-05T00:21:29.106Z,0.60
2022-12-05T00:23:57.898Z,0.70
2022-12-05T00:26:25.951Z,0.70
2022-12-05T00:28:53.563Z,0.70
2022-12-05T00:31:23.108Z,0.70
2022-12-05T00:33:51.356Z,0.70
2022-12-05T00:36:24.819Z,0.70
2022-12-05T00:38:53.328Z,0.60
2022-12-05T00:41:24.109Z,0.60
2022-12-05T00:43:52.299Z,0.60
2022-12-05T00:46:23.676Z,0.60
2022-12-05T00:48:53.061Z,0.70
2022-12-05T00:51:30.365Z,0.60
2022-12-05T00:54:03.719Z,0.70
2022-12-05T00:56:32.397Z,0.70
2022-12-05T00:59:01.079Z,0.60
2022-12-05T01:01:34.233Z,0.60
2022-12-05T01:04:04.940Z,0.60
2022-12-05T01:06:32.761Z,0.60
2022-12-05T01:09:00.190Z,0.70
2022-12-05T01:11:28.899Z,0.60
2022-12-05T01:13:56.464Z,0.60
2022-12-05T01:16:26.650Z,0.60
2022-12-05T01:18:54.522Z,0.60
2022-12-05T01:21:21.929Z,0.60
2022-12-05T01:23:49.485Z,0.60
2022-12-05T01:26:19.252Z,-1.00
2022-12-05T01:28:47.027Z,0.60
2022-12-05T01:31:32.063Z,0.60
2022-12-05T01:34:01.204Z,0.60
2022-12-05T01:36:29.668Z,0.60
2022-12-05T01:38:57.101Z,0.60
2022-12-05T01:41:28.092Z,0.60
2022-12-05T01:44:02.524Z,0.60
2022-12-05T01:46:36.051Z,0.60
2022-12-05T01:49:09.480Z,0.60
2022-12-05T01:51:40.235Z,0.60
2022-12-05T01:54:07.923Z,0.50
2022-12-05T01:56:36.556Z,0.50
2022-12-05T01:59:07.668Z,0.40
2022-12-05T02:01:35.897Z,0.50
2022-12-05T02:04:03.768Z,0.40
2022-12-05T02:06:33.074Z,0.40
2022-12-05T02:09:00.045Z,0.40
2022-12-05T02:11:30.159Z,0.50
2022-12-05T02:14:05.087Z,0.50
2022-12-05T02:16:49.082Z,0.50
2022-12-05T02:19:53.871Z,0.50
2022-12-05T02:22:42.714Z,0.50
2022-12-05T02:25:12.714Z,0.50
2022-12-05T02:28:01.980Z,0.50
2022-12-05T02:30:35.527Z,0.40
2022-12-05T02:33:23.329Z,0.40
2022-12-05T02:36:15.932Z,0.40
2022-12-05T02:38:49.024Z,0.40
2022-12-05T02:41:28.264Z,0.40
2022-12-05T02:44:27.579Z,0.40
2022-12-05T02:46:56.003Z,0.40
2022-12-05T02:49:30.241Z,0.40
2022-12-05T02:51:59.838Z,0.40
2022-12-05T02:54:32.009Z,0.30
2022-12-05T02:57:00.336Z,0.30
2022-12-05T02:59:28.007Z,0.30
2022-12-05T03:01:55.243Z,0.30
2022-12-05T03:04:24.610Z,0.30
2022-12-05T03:07:13.024Z,0.30
2022-12-05T03:09:54.987Z,0.20
2022-12-05T03:12:28.535Z,0.30
2022-12-05T03:15:08.404Z,0.20
2022-12-05T03:17:46.294Z,0.30
2022-12-05T03:20:28.242Z,0.20
2022-12-05T03:22:59.882Z,0.30
2022-12-05T03:25:36.056Z,0.30
2022-12-05T03:28:09.094Z,0.40
2022-12-05T03:30:39.530Z,0.40
2022-12-05T03:33:18.664Z,0.40
2022-12-05T03:36:03.325Z,0.30
2022-12-05T03:38:56.891Z,0.30
2022-12-05T03:41:44.495Z,0.30
2022-12-05T03:44:39.471Z,0.30
2022-12-05T03:47:14.360Z,0.30
2022-12-05T03:49:48.276Z,0.20
2022-12-05T03:52:27.092Z,0.20
2022-12-05T03:54:57.626Z,0.20
2022-12-05T03:57:31.465Z,0.20
2022-12-05T04:00:07.669Z,0.20
2022-12-05T04:03:14.497Z,0.20
2022-12-05T04:05:52.547Z,0.20
2022-12-05T04:08:22.200Z,0.20
2022-12-05T04:10:53.517Z,0.20
2022-12-05T04:13:28.986Z,0.20
2022-12-05T04:16:45.197Z,0.20
2022-12-05T04:19:54.321Z,0.20
2022-12-05T04:22:22.446Z,0.20
2022-12-05T04:25:09.840Z,0.20
2022-12-05T04:28:13.618Z,0.20
2022-12-05T04:30:50.730Z,0.20
2022-12-05T04:33:33.605Z,0.20
2022-12-05T04:36:34.464Z,0.20
2022-12-05T04:39:05.524Z,0.20
2022-12-05T04:41:41.135Z,0.20
2022-12-05T04:44:11.295Z,0.20
2022-12-05T04:46:42.056Z,0.20
2022-12-05T04:49:12.443Z,0.10
2022-12-05T04:51:43.146Z,0.10
2022-12-05T04:54:39.328Z,0.10
2022-12-05T04:57:26.835Z,0.10
2022-12-05T04:59:54.901Z,0.10
2022-12-05T05:02:32.383Z,0.10
2022-12-05T05:05:02.329Z,0.20
2022-12-05T05:07:29.761Z,0.20
2022-12-05T05:09:57.689Z,0.20
2022-12-05T05:12:25.166Z,0.10
2022-12-05T05:14:52.104Z,0.10
2022-12-05T05:17:19.408Z,0.10
2022-12-05T05:19:46.387Z,0.10
2022-12-05T05:22:13.667Z,0.20
2022-12-05T05:24:40.662Z,0.10
2022-12-05T05:27:07.985Z,0.20
2022-12-05T05:29:35.064Z,0.20
2022-12-05T05:32:02.309Z,0.20
2022-12-05T05:34:29.252Z,0.10
2022-12-05T05:36:56.513Z,0.20
2022-12-05T05:39:23.477Z,0.20
2022-12-05T05:41:50.943Z,0.20
2022-12-05T05:44:17.884Z,0.20
2022-12-05T05:46:45.401Z,0.20
2022-12-05T05:49:12.658Z,0.20
2022-12-05T05:51:40.216Z,0.20
2022-12-05T05:54:07.187Z,0.20
2022-12-05T05:56:34.437Z,0.30
2022-12-05T05:59:03.849Z,0.30
2022-12-05T06:01:31.411Z,0.20
2022-12-05T06:04:01.626Z,0.10
2022-12-05T06:06:29.133Z,0.20
2022-12-05T06:08:56.934Z,0.20
2022-12-05T06:11:27.217Z,0.10
2022-12-05T06:14:02.051Z,0.20
2022-12-05T06:16:31.305Z,0.20
2022-12-05T06:18:59.069Z,0.20
2022-12-05T06:21:26.700Z,0.20
2022-12-05T06:23:54.703Z,0.20
2022-12-05T06:26:23.036Z,0.20
2022-12-05T06:28:50.458Z,0.10
2022-12-05T06:31:23.406Z,0.10
2022-12-05T06:33:50.643Z,0.10
2022-12-05T06:36:20.980Z,0.20
2022-12-05T06:38:48.281Z,0.10
2022-12-05T06:41:18.102Z,0.20
2022-12-05T06:43:45.549Z,0.20
2022-12-05T06:46:14.419Z,0.20
2022-12-05T06:48:41.504Z,0.10
2022-12-05T06:51:11.298Z,0.20
2022-12-05T06:53:38.999Z,0.20
2022-12-05T06:56:08.305Z,0.20
2022-12-05T06:58:35.338Z,0.20
2022-12-05T07:01:21.322Z,0.20
2022-12-05T07:03:51.494Z,0.20
2022-12-05T07:06:18.932Z,0.30
2022-12-05T07:08:45.944Z,0.30
2022-12-05T07:11:13.302Z,0.30
2022-12-05T07:13:40.302Z,0.30
2022-12-05T07:16:08.496Z,0.30
2022-12-05T07:18:36.737Z,0.30
2022-12-05T07:21:12.475Z,0.30
2022-12-05T07:23:41.848Z,0.40
2022-12-05T07:26:11.790Z,0.40
2022-12-05T07:28:38.866Z,0.40
2022-12-05T07:31:09.177Z,0.40
2022-12-05T07:33:38.986Z,0.40
2022-12-05T07:36:09.362Z,0.30
2022-12-05T07:38:36.604Z,0.30
2022-12-05T07:41:31.465Z,0.30
2022-12-05T07:44:00.012Z,0.30
2022-12-05T07:46:29.029Z,0.30
2022-12-05T07:48:56.225Z,0.30
2022-12-05T07:51:24.103Z,0.30
2022-12-05T07:53:51.632Z,0.30
2022-12-05T07:56:19.468Z,0.30
2022-12-05T07:58:50.017Z,0.30
2022-12-05T08:01:22.832Z,0.40
2022-12-05T08:03:52.029Z,0.40
2022-12-05T08:06:30.750Z,0.30
2022-12-05T08:09:00.937Z,0.40
2022-12-05T08:11:31.056Z,0.30
2022-12-05T08:13:58.957Z,0.30
2022-12-05T08:16:28.721Z,0.30
2022-12-05T08:18:57.366Z,0.30
2022-12-05T08:21:27.684Z,0.40
2022-12-05T08:23:55.092Z,0.40
2022-12-05T08:26:25.681Z,0.50
2022-12-05T08:28:55.070Z,0.40
2022-12-05T08:31:24.492Z,0.40
2022-12-05T08:33:57.091Z,0.40
2022-12-05T08:36:28.576Z,0.30
2022-12-05T08:39:04.477Z,0.30
2022-12-05T08:41:32.374Z,0.30
2022-12-05T08:44:03.293Z,0.40
2022-12-05T08:46:32.436Z,0.40
2022-12-05T08:48:59.981Z,0.40
2022-12-05T08:51:27.235Z,0.40
2022-12-05T08:53:56.394Z,0.40
2022-12-05T08:56:27.180Z,0.40
2022-12-05T08:59:02.952Z,0.50
2022-12-05T09:01:33.715Z,0.50
2022-12-05T09:04:02.470Z,0.50
2022-12-05T09:06:31.546Z,0.50
2022-12-05T09:09:01.395Z,0.50
2022-12-05T09:11:33.523Z,0.50
2022-12-05T09:14:02.256Z,0.40
2022-12-05T09:16:36.850Z,0.40
2022-12-05T09:19:24.162Z,0.40
2022-12-05T09:21:51.247Z,0.40
2022-12-05T09:24:18.700Z,0.50
2022-12-05T09:26:46.573Z,0.50
2022-12-05T09:29:17.194Z,0.40
2022-12-05T09:31:46.914Z,0.50
2022-12-05T09:34:15.619Z,0.50
2022-12-05T09:36:43.652Z,0.60
2022-12-05T09:39:11.752Z,0.50
2022-12-05T09:42:09.942Z,0.60
2022-12-05T09:44:54.200Z,0.50
2022-12-05T09:47:39.209Z,0.60
2022-12-05T09:50:26.603Z,0.50
2022-12-05T09:53:32.486Z,0.60
2022-12-05T09:56:06.344Z,0.60
2022-12-05T09:58:40.203Z,0.60
2022-12-05T10:01:28.634Z,0.60
2022-12-05T10:04:05.410Z,0.50
2022-12-05T10:06:45.598Z,0.60
2022-12-05T10:09:24.919Z,0.50
2022-12-05T10:12:15.435Z,0.50
2022-12-05T10:14:45.558Z,0.50
2022-12-05T10:17:28.388Z,0.50
2022-12-05T10:20:02.081Z,0.60
2022-12-05T10:22:35.032Z,0.60
2022-12-05T10:25:09.043Z,0.60
2022-12-05T10:27:40.807Z,0.60
2022-12-05T10:30:18.240Z,0.70
2022-12-05T10:32:57.849Z,0.60
2022-12-05T10:35:33.791Z,0.60
2022-12-05T10:38:06.821Z,0.70
2022-12-05T10:40:38.266Z,0.70
2022-12-05T10:43:08.299Z,0.70
2022-12-05T10:45:42.596Z,0.70
2022-12-05T10:48:13.875Z,0.70
2022-12-05T10:50:43.498Z,0.70
2022-12-05T10:53:19.557Z,0.70
2022-12-05T10:56:21.429Z,0.80
2022-12-05T10:58:35.650Z,0.80
2022-12-05T11:01:09.865Z,0.70
2022-12-05T11:03:42.473Z,0.70
2022-12-05T11:06:27.679Z,0.80
2022-12-05T11:09:05.458Z,0.70
2022-12-05T11:11:34.076Z,0.70
2022-12-05T11:14:08.727Z,0.70
2022-12-05T11:16:39.618Z,0.70
2022-12-05T11:19:22.354Z,0.70
2022-12-05T11:21:52.334Z,0.70
2022-12-05T11:24:34.566Z,0.80
2022-12-05T11:27:21.153Z,0.80
2022-12-05T11:29:57.055Z,0.80
2022-12-05T11:32:27.097Z,0.70
2022-12-05T11:35:03.229Z,0.70
2022-12-05T11:37:40.414Z,0.80
2022-12-05T11:40:17.333Z,0.80
2022-12-05T11:42:51.857Z,0.80
2022-12-05T11:45:40.848Z,0.80
2022-12-05T11:48:19.278Z,0.80
2022-12-05T11:51:01.026Z,0.80
2022-12-05T11:53:58.941Z,0.80
2022-12-05T11:56:57.029Z,0.80
2022-12-05T11:59:52.039Z,0.80
2022-12-05T12:02:45.172Z,0.90
2022-12-05T12:05:21.381Z,0.90
2022-12-05T12:08:24.648Z,0.90
2022-12-05T12:11:13.355Z,0.80
2022-12-05T12:13:40.678Z,0.80
2022-12-05T12:16:17.477Z,0.70
2022-12-05T12:19:02.785Z,0.70
2022-12-05T12:22:00.562Z,0.80
2022-12-05T12:24:49.152Z,0.80
2022-12-05T12:27:35.884Z,0.80
2022-12-05T12:30:22.617Z,0.80
2022-12-05T12:33:24.004Z,0.80
2022-12-05T12:36:14.657Z,0.90
2022-12-05T12:38:53.270Z,1.00
2022-12-05T12:42:01.752Z,1.00
2022-12-05T12:45:10.383Z,1.00
2022-12-05T12:48:04.095Z,0.90
2022-12-05T12:50:34.214Z,0.90
2022-12-05T12:53:48.192Z,1.00
2022-12-05T12:56:59.370Z,0.90
2022-12-05T12:59:47.758Z,0.80
2022-12-05T13:02:45.234Z,0.80
2022-12-05T13:05:18.875Z,0.80
2022-12-05T13:07:52.018Z,0.90
2022-12-05T13:10:39.649Z,0.90
2022-12-05T13:13:11.038Z,1.00
2022-12-05T13:16:02.452Z,1.00
2022-12-05T13:18:29.952Z,0.80
2022-12-05T13:21:00.661Z,0.90
2022-12-05T13:23:36.908Z,0.90
2022-12-05T13:26:09.922Z,0.80
2022-12-05T13:28:49.465Z,0.80
2022-12-05T13:31:19.532Z,0.90
2022-12-05T13:33:51.347Z,0.90
2022-12-05T13:39:44.441Z,0.90
2022-12-05T13:42:29.377Z,0.90
2022-12-05T13:44:58.705Z,0.90
2022-12-05T13:47:49.976Z,0.90
2022-12-05T13:51:02.766Z,0.90
2022-12-05T13:53:45.654Z,1.00
2022-12-05T13:56:15.382Z,1.00
2022-12-05T13:58:48.040Z,1.00
2022-12-05T14:01:27.232Z,0.90
2022-12-05T14:03:57.404Z,0.90
2022-12-05T14:06:39.679Z,0.80
2022-12-05T14:09:54.798Z,0.70
2022-12-05T14:12:24.687Z,0.80
2022-12-05T14:15:04.346Z,0.80
2022-12-05T14:17:42.802Z,0.80
2022-12-05T14:20:25.622Z,0.80
2022-12-05T14:23:27.808Z,0.70
2022-12-05T14:26:23.659Z,0.80
2022-12-05T14:29:13.192Z,0.80
2022-12-05T14:32:04.744Z,0.80
2022-12-05T14:34:40.476Z,0.80
2022-12-05T14:37:39.517Z,0.70
2022-12-05T14:40:40.603Z,0.60
2022-12-05T14:43:27.425Z,0.60
2022-12-05T14:45:59.768Z,0.60
2022-12-05T14:48:31.845Z,0.60
2022-12-05T14:51:01.557Z,0.60
2022-12-05T14:53:38.603Z,0.60
2022-12-05T14:56:16.357Z,0.60
2022-12-05T14:58:59.939Z,0.70
2022-12-05T15:01:52.357Z,0.60
2022-12-05T15:04:42.473Z,0.60
2022-12-05T15:07:19.084Z,0.70
2022-12-05T15:10:07.186Z,0.70
2022-12-05T15:12:50.973Z,0.70
2022-12-05T15:15:40.377Z,0.70
2022-12-05T15:18:31.245Z,0.60
2022-12-05T15:20:58.552Z,0.70
2022-12-05T15:23:41.533Z,0.80
2022-12-05T15:26:45.555Z,0.70
2022-12-05T15:29:26.942Z,0.70
2022-12-05T15:32:07.898Z,0.70
2022-12-05T15:34:44.212Z,0.70
2022-12-05T15:37:55.803Z,0.70
2022-12-05T15:40:26.007Z,0.70
2022-12-05T15:42:57.847Z,0.70
2022-12-05T15:45:27.618Z,0.70
2022-12-05T15:47:57.287Z,0.70
2022-12-05T15:50:33.129Z,0.60
2022-12-05T15:53:44.704Z,0.70
2022-12-05T15:56:26.187Z,0.70
2022-12-05T15:59:02.714Z,0.80
2022-12-05T16:01:30.206Z,0.70
2022-12-05T16:04:22.594Z,0.70
2022-12-05T16:06:55.749Z,0.70
2022-12-05T16:09:26.343Z,0.80
2022-12-05T16:11:59.478Z,0.80
2022-12-05T16:17:23.401Z,0.80
2022-12-05T16:19:51.690Z,0.70
2022-12-05T16:22:24.288Z,0.70
2022-12-05T16:25:01.930Z,0.80
2022-12-05T16:27:29.738Z,0.80
2022-12-05T16:30:21.318Z,0.70
2022-12-05T16:32:58.091Z,0.80
2022-12-05T16:35:38.800Z,0.90
2022-12-05T16:38:27.007Z,0.90
2022-12-05T16:40:55.827Z,0.90
2022-12-05T16:43:22.835Z,0.80
2022-12-05T16:45:51.490Z,0.70
2022-12-05T16:48:26.815Z,0.70
2022-12-05T16:51:16.699Z,0.80
2022-12-05T16:53:48.580Z,0.80
2022-12-05T16:56:25.994Z,0.90
2022-12-05T16:58:53.735Z,0.90
2022-12-05T17:01:26.284Z,0.90
2022-12-05T17:03:55.428Z,0.90
2022-12-05T17:06:27.022Z,1.00
2022-12-05T17:08:55.164Z,0.90
2022-12-05T17:11:29.569Z,0.80
2022-12-05T17:13:57.514Z,0.80
2022-12-05T17:16:26.842Z,0.90
2022-12-05T17:18:54.527Z,0.90
2022-12-05T17:21:29.147Z,0.90
2022-12-05T17:23:56.427Z,1.00
2022-12-05T17:26:25.866Z,1.00
2022-12-05T17:28:53.328Z,1.00
2022-12-05T17:31:23.083Z,1.00
2022-12-05T17:33:52.148Z,1.00
2022-12-05T17:36:22.505Z,1.00
2022-12-05T17:38:50.659Z,1.00
2022-12-05T17:41:23.372Z,0.90
2022-12-05T17:43:54.148Z,0.90
2022-12-05T17:46:23.568Z,0.90
2022-12-05T17:48:52.243Z,0.80
2022-12-05T17:51:20.431Z,0.90
2022-12-05T17:53:48.291Z,0.90
2022-12-05T17:56:16.101Z,0.90
2022-12-05T17:58:43.512Z,1.00
2022-12-05T18:01:16.103Z,1.00
2022-12-05T18:03:43.584Z,1.00
2022-12-05T18:06:11.127Z,1.00
2022-12-05T18:08:44.190Z,1.00
2022-12-05T18:11:15.704Z,1.00
2022-12-05T18:13:43.048Z,1.00
2022-12-05T18:16:10.773Z,0.90
2022-12-05T18:18:38.113Z,1.00
2022-12-05T18:21:11.172Z,1.00
2022-12-05T18:23:40.375Z,1.00
2022-12-05T18:26:09.053Z,1.00
2022-12-05T18:28:38.456Z,1.00
2022-12-05T18:31:10.895Z,1.00
2022-12-05T18:33:39.730Z,0.90
2022-12-05T18:36:12.855Z,1.00
2022-12-05T18:38:40.845Z,0.90
2022-12-05T18:41:08.157Z,1.00
2022-12-05T18:43:36.145Z,1.00
2022-12-05T18:46:04.621Z,1.00
2022-12-05T18:48:44.830Z,1.00
2022-12-05T18:51:17.042Z,1.00
2022-12-05T18:53:52.086Z,0.90
2022-12-05T18:56:28.901Z,1.00
2022-12-05T18:59:02.569Z,1.10
2022-12-05T19:01:31.554Z,1.10
2022-12-05T19:04:00.476Z,1.00
2022-12-05T19:06:30.368Z,1.10
2022-12-05T19:09:00.703Z,1.10
2022-12-05T19:11:28.803Z,1.10
2022-12-05T19:14:05.262Z,1.10
2022-12-05T19:16:34.318Z,1.00
2022-12-05T19:19:03.184Z,1.00
2022-12-05T19:21:32.175Z,1.00
2022-12-05T19:24:01.284Z,1.00
2022-12-05T19:26:29.853Z,1.10
2022-12-05T19:28:57.700Z,1.10
2022-12-05T19:31:26.857Z,1.10
2022-12-05T19:33:56.217Z,1.10
2022-12-05T19:36:35.645Z,1.00
2022-12-05T19:39:11.951Z,1.00
2022-12-05T19:41:39.167Z,0.90
2022-12-05T19:44:09.440Z,0.90
2022-12-05T19:46:39.729Z,0.90
2022-12-05T19:49:09.848Z,0.90
2022-12-05T19:51:37.727Z,0.90
2022-12-05T19:54:07.020Z,1.00
2022-12-05T19:56:36.458Z,1.10
2022-12-05T19:59:05.172Z,1.10
2022-12-05T20:01:37.500Z,1.10
2022-12-05T20:04:10.698Z,1.10
2022-12-05T20:06:41.378Z,1.10
2022-12-05T20:09:10.479Z,1.10
2022-12-05T20:11:50.924Z,1.10
2022-12-05T20:14:24.921Z,1.10
2022-12-05T20:16:54.294Z,1.10
2022-12-05T20:19:23.290Z,1.10
2022-12-05T20:21:50.439Z,1.10
2022-12-05T20:24:17.748Z,1.10
2022-12-05T20:26:45.215Z,1.10
2022-12-05T20:29:12.903Z,1.10
2022-12-05T20:31:41.960Z,1.10
2022-12-05T20:34:13.449Z,1.20
2022-12-05T20:36:41.068Z,1.20
2022-12-05T20:39:13.341Z,1.20
2022-12-05T20:41:40.840Z,1.20
2022-12-05T20:44:08.625Z,1.20
2022-12-05T20:46:37.013Z,1.20
2022-12-05T20:49:04.339Z,1.20
2022-12-05T20:51:34.106Z,1.20
2022-12-05T20:54:03.769Z,1.20
2022-12-05T20:56:33.826Z,1.20
2022-12-05T20:59:06.058Z,1.10
2022-12-05T21:01:35.851Z,1.20
2022-12-05T21:04:05.836Z,1.20
2022-12-05T21:06:37.898Z,1.20
2022-12-05T21:09:14.831Z,1.20
2022-12-05T21:11:45.362Z,1.30
2022-12-05T21:14:12.790Z,1.30
2022-12-05T21:16:40.588Z,1.30
2022-12-05T21:19:08.782Z,1.30
2022-12-05T21:21:36.171Z,1.20
2022-12-05T21:24:05.284Z,1.20
2022-12-05T21:26:35.115Z,1.20
2022-12-05T21:29:03.795Z,1.20
2022-12-05T21:31:40.073Z,1.20
2022-12-05T21:34:20.281Z,1.20
2022-12-05T21:36:47.708Z,1.20
2022-12-05T21:39:15.633Z,1.20
2022-12-05T21:41:43.045Z,1.30
2022-12-05T21:44:11.988Z,1.30
2022-12-05T21:46:39.407Z,1.30
2022-12-05T21:49:09.141Z,1.30
2022-12-05T21:51:36.601Z,1.30
2022-12-05T21:54:05.336Z,1.40
2022-12-05T21:56:33.077Z,1.30
2022-12-05T21:59:00.209Z,1.30
2022-12-05T22:01:28.819Z,1.30
2022-12-05T22:04:00.935Z,1.30
2022-12-05T22:06:33.427Z,1.30
2022-12-05T22:09:01.232Z,1.40
2022-12-05T22:11:28.839Z,1.40
2022-12-05T22:13:56.130Z,1.40
2022-12-05T22:16:27.777Z,1.40
2022-12-05T22:18:57.931Z,1.40
2022-12-05T22:21:30.079Z,1.40
2022-12-05T22:23:57.196Z,1.40
2022-12-05T22:26:26.203Z,1.40
2022-12-05T22:28:56.980Z,1.50
2022-12-05T22:31:24.962Z,1.50
2022-12-05T22:33:52.572Z,1.50
2022-12-05T22:36:20.518Z,1.50
2022-12-05T22:38:48.818Z,1.50
2022-12-05T22:41:25.386Z,1.50
2022-12-05T22:43:59.371Z,1.50
2022-12-05T22:46:28.373Z,1.50
2022-12-05T22:48:56.510Z,1.50
2022-12-05T22:51:26.775Z,1.60
2022-12-05T22:53:56.501Z,1.60
2022-12-05T22:56:26.813Z,1.60
2022-12-05T22:58:56.847Z,1.60
2022-12-05T23:01:28.546Z,1.60
2022-12-05T23:04:02.034Z,1.50
2022-12-05T23:06:31.350Z,1.40
2022-12-05T23:08:59.761Z,1.50
2022-12-05T23:11:28.608Z,1.60
2022-12-05T23:14:01.356Z,1.60
2022-12-05T23:16:31.035Z,1.60
2022-12-05T23:19:01.120Z,1.60
2022-12-05T23:21:39.652Z,1.60
2022-12-05T23:24:09.874Z,1.60
2022-12-05T23:26:44.396Z,1.60
2022-12-05T23:29:12.680Z,1.60
2022-12-05T23:31:41.266Z,1.60
2022-12-05T23:34:08.581Z,1.60
2022-12-05T23:36:37.316Z,1.60
2022-12-05T23:39:05.725Z,1.70
2022-12-05T23:41:33.017Z,1.60
2022-12-05T23:44:00.101Z,1.70
2022-12-05T23:46:28.591Z,1.70
2022-12-05T23:48:56.131Z,1.70
2022-12-05T23:51:28.379Z,1.60
2022-12-05T23:54:00.981Z,1.60
2022-12-05T23:56:31.612Z,1.60
2022-12-05T23:58:58.669Z,1.70
